createdAt,value
2023-06-05T00:02:26.398Z,98469.88
2023-06-05T00:04:54.766Z,98464.84
2023-06-05T00:07:22.423Z,98468.34
2023-06-05T00:09:49.921Z,98436.06
2023-06-05T00:12:17.494Z,98472.28
2023-06-05T00:14:46.228Z,98457.72
2023-06-05T00:17:13.756Z,98474.97
2023-06-05T00:19:41.275Z,98478.38
2023-06-05T00:22:08.806Z,98464.31
2023-06-05T00:24:36.333Z,98467.44
2023-06-05T00:27:03.904Z,98468.22
2023-06-05T00:29:31.410Z,98463.28
2023-06-05T00:31:59.054Z,98471.13
2023-06-05T00:34:26.638Z,98470.28
2023-06-05T00:36:54.262Z,98474.38
2023-06-05T00:39:21.940Z,98468.59
2023-06-05T00:41:49.461Z,98464.53
2023-06-05T00:44:19.872Z,98477.72
2023-06-05T00:46:49.345Z,98469.09
2023-06-05T00:49:17.161Z,98474.13
2023-06-05T00:51:46.991Z,98470.63
2023-06-05T00:54:14.969Z,98462.75
2023-06-05T00:56:44.245Z,98467.69
2023-06-05T00:59:13.565Z,98461.22
2023-06-05T01:01:44.763Z,98465.94
2023-06-05T01:04:12.427Z,98474.53
2023-06-05T01:06:41.856Z,98474.69
2023-06-05T01:09:11.683Z,98472.25
2023-06-05T01:12:54.209Z,98469.31
2023-06-05T01:15:29.853Z,98471.75
2023-06-05T01:18:01.841Z,98474.50
2023-06-05T01:20:41.116Z,98467.59
2023-06-05T01:23:10.237Z,98466.59
2023-06-05T01:25:38.409Z,98474.56
2023-06-05T01:28:30.054Z,98471.69
2023-06-05T01:31:16.938Z,98474.44
2023-06-05T01:34:04.961Z,98475.06
2023-06-05T01:36:33.210Z,98476.97
2023-06-05T01:39:01.869Z,98467.28
2023-06-05T01:41:30.067Z,98470.47
2023-06-05T01:43:58.163Z,98470.22
2023-06-05T01:46:26.052Z,98466.16
2023-06-05T01:48:55.562Z,98473.66
2023-06-05T01:51:23.412Z,98478.56
2023-06-05T01:53:51.468Z,98475.63
2023-06-05T01:56:20.616Z,98473.13
2023-06-05T01:58:50.044Z,98471.59
2023-06-05T02:01:17.896Z,98467.56
2023-06-05T02:03:49.229Z,98475.59
2023-06-05T02:06:18.072Z,98471.00
2023-06-05T02:08:45.619Z,98476.91
2023-06-05T02:11:13.229Z,98479.31
2023-06-05T02:13:41.571Z,98470.53
2023-06-05T02:16:12.793Z,98467.75
2023-06-05T02:18:40.349Z,98463.25
2023-06-05T02:21:08.039Z,98466.94
2023-06-05T02:23:35.830Z,98471.13
2023-06-05T02:26:03.586Z,98465.53
2023-06-05T02:28:31.290Z,98479.19
2023-06-05T02:30:58.884Z,98475.00
2023-06-05T02:33:26.389Z,98466.06
2023-06-05T02:35:53.908Z,98469.25
2023-06-05T02:38:21.448Z,98470.38
2023-06-05T02:40:48.961Z,98470.53
2023-06-05T02:43:18.661Z,98472.50
2023-06-05T02:45:46.926Z,98466.59
2023-06-05T02:48:14.470Z,98468.16
2023-06-05T02:50:42.001Z,98469.19
2023-06-05T02:53:09.613Z,98462.59
2023-06-05T02:55:37.445Z,98461.78
2023-06-05T02:58:04.948Z,98461.78
2023-06-05T03:00:32.904Z,98463.84
2023-06-05T03:03:02.277Z,98466.69
2023-06-05T03:05:30.155Z,98462.75
2023-06-05T03:07:57.698Z,98469.25
2023-06-05T03:10:25.444Z,98464.13
2023-06-05T03:12:53.113Z,98463.28
2023-06-05T03:15:20.681Z,98466.16
2023-06-05T03:17:48.473Z,98472.78
2023-06-05T03:20:20.577Z,98474.75
2023-06-05T03:22:48.203Z,98474.25
2023-06-05T03:25:16.078Z,98477.81
2023-06-05T03:27:43.784Z,98475.53
2023-06-05T03:30:13.122Z,98479.03
2023-06-05T04:17:57.549Z,98493.97
2023-06-05T04:20:25.178Z,98503.88
2023-06-05T04:22:52.864Z,98506.38
2023-06-05T04:25:20.436Z,98511.56
2023-06-05T04:27:52.552Z,98506.38
2023-06-05T04:30:20.767Z,98494.44
2023-06-05T04:32:55.710Z,98506.75
2023-06-05T04:35:24.482Z,98508.34
2023-06-05T04:37:52.011Z,98511.53
2023-06-05T04:40:20.956Z,98511.56
2023-06-05T04:42:48.517Z,98508.00
2023-06-05T04:45:17.904Z,98514.34
2023-06-05T04:47:45.722Z,98512.34
2023-06-05T04:50:27.393Z,98508.34
2023-06-05T04:52:55.235Z,98516.28
2023-06-05T04:55:23.351Z,98513.91
2023-06-05T04:57:50.867Z,98516.69
2023-06-05T05:00:18.687Z,98509.56
2023-06-05T05:02:46.740Z,98515.91
2023-06-05T05:05:14.542Z,98513.91
2023-06-05T05:07:43.882Z,98516.28
2023-06-05T05:10:11.941Z,98515.09
2023-06-05T05:12:40.037Z,98515.50
2023-06-05T05:15:08.740Z,98517.09
2023-06-05T05:17:37.301Z,98516.28
2023-06-05T05:20:07.927Z,98522.66
2023-06-05T05:22:36.235Z,98522.63
2023-06-05T05:25:04.391Z,98528.16
2023-06-05T05:27:32.447Z,98526.59
2023-06-05T05:29:59.999Z,98520.59
2023-06-05T05:32:27.525Z,98521.78
2023-06-05T05:34:55.283Z,98516.16
2023-06-05T05:37:23.470Z,98528.06
2023-06-05T05:39:51.286Z,98521.66
2023-06-05T05:42:19.133Z,98524.09
2023-06-05T05:44:46.675Z,98526.50
2023-06-05T05:47:15.507Z,98523.28
2023-06-05T05:49:43.065Z,98514.88
2023-06-05T05:52:11.422Z,98523.59
2023-06-05T05:54:38.958Z,98522.44
2023-06-05T05:57:06.739Z,98522.25
2023-06-05T05:59:34.253Z,98527.78
2023-06-05T06:02:09.805Z,98520.69
2023-06-05T06:04:37.921Z,98527.03
2023-06-05T06:07:07.219Z,98529.75
2023-06-05T06:09:34.929Z,98525.81
2023-06-05T06:12:07.002Z,98521.97
2023-06-05T06:14:36.092Z,98532.66
2023-06-05T06:17:07.348Z,98521.56
2023-06-05T06:19:35.612Z,98524.41
2023-06-05T06:22:03.129Z,98530.56
2023-06-05T06:24:31.143Z,98523.69
2023-06-05T06:26:59.000Z,98523.44
2023-06-05T06:29:28.882Z,98529.78
2023-06-05T06:31:56.476Z,98537.28
2023-06-05T06:34:25.800Z,98533.59
2023-06-05T06:36:53.319Z,98532.91
2023-06-05T06:39:20.838Z,98537.06
2023-06-05T06:41:48.362Z,98537.38
2023-06-05T06:44:15.898Z,98538.19
2023-06-05T06:46:43.415Z,98535.66
2023-06-05T06:49:11.070Z,98532.28
2023-06-05T06:51:38.751Z,98534.88
2023-06-05T06:54:06.634Z,98532.47
2023-06-05T06:56:34.137Z,98526.91
2023-06-05T06:59:03.793Z,98532.94
2023-06-05T07:01:31.755Z,98526.34
2023-06-05T07:03:59.364Z,98531.88
2023-06-05T07:06:26.860Z,98533.06
2023-06-05T07:08:54.361Z,98530.63
2023-06-05T07:11:22.969Z,98531.34
2023-06-05T07:13:50.509Z,98528.84
2023-06-05T07:16:18.145Z,98528.94
2023-06-05T07:18:46.177Z,98536.00
2023-06-05T07:21:13.865Z,98535.81
2023-06-05T07:23:41.428Z,98532.81
2023-06-05T07:26:09.097Z,98542.47
2023-06-05T07:28:36.609Z,98537.03
2023-06-05T07:31:05.153Z,98537.38
2023-06-05T07:33:33.481Z,98535.94
2023-06-05T07:36:02.414Z,98531.84
2023-06-05T07:38:31.954Z,98531.28
2023-06-05T07:40:59.595Z,98532.06
2023-06-05T07:43:27.185Z,98536.03
2023-06-05T07:45:55.177Z,98531.78
2023-06-05T07:48:22.751Z,98533.81
2023-06-05T07:50:50.306Z,98532.94
2023-06-05T07:53:17.813Z,98529.19
2023-06-05T07:55:45.309Z,98530.59
2023-06-05T07:58:12.768Z,98526.03
2023-06-05T08:00:44.699Z,98532.41
2023-06-05T08:03:14.629Z,98522.91
2023-06-05T08:05:43.983Z,98525.47
2023-06-05T08:08:11.637Z,98529.22
2023-06-05T08:10:39.144Z,98525.75
2023-06-05T08:13:06.641Z,98533.81
2023-06-05T08:15:34.175Z,98515.34
2023-06-05T08:18:02.118Z,98521.78
2023-06-05T08:20:29.775Z,98515.91
2023-06-05T08:22:58.446Z,98508.84
2023-06-05T08:25:27.853Z,98511.91
2023-06-05T08:27:56.059Z,98505.38
2023-06-05T08:30:23.638Z,98508.75
2023-06-05T08:32:51.275Z,98500.47
2023-06-05T08:35:18.801Z,98507.94
2023-06-05T08:37:46.720Z,98509.50
2023-06-05T08:40:16.456Z,98511.38
2023-06-05T08:42:44.639Z,98505.91
2023-06-05T08:45:12.582Z,98507.00
2023-06-05T08:47:42.575Z,98510.09
2023-06-05T08:50:10.418Z,98504.91
2023-06-05T08:52:43.080Z,98505.84
2023-06-05T08:55:12.071Z,98509.81
2023-06-05T08:57:43.341Z,98499.44
2023-06-05T09:00:13.417Z,98496.81
2023-06-05T09:02:48.844Z,98493.38
2023-06-05T09:05:18.476Z,98491.00
2023-06-05T09:07:46.519Z,98502.38
2023-06-05T09:10:29.845Z,98496.00
2023-06-05T09:13:05.167Z,98492.69
2023-06-05T09:15:35.974Z,98500.38
2023-06-05T09:18:15.667Z,98494.03
2023-06-05T09:20:47.750Z,98488.16
2023-06-05T09:23:28.772Z,98496.31
2023-06-05T09:26:01.737Z,98487.53
2023-06-05T09:28:29.415Z,98493.31
2023-06-05T09:31:05.492Z,98491.50
2023-06-05T09:33:35.807Z,98483.38
2023-06-05T09:36:14.667Z,98476.69
2023-06-05T09:38:43.201Z,98483.75
2023-06-05T09:41:13.487Z,98467.50
2023-06-05T09:43:41.434Z,98474.78
2023-06-05T09:46:12.635Z,98479.41
2023-06-05T09:48:50.942Z,98470.22
2023-06-05T09:51:20.897Z,98473.44
2023-06-05T09:53:52.485Z,98469.47
2023-06-05T09:56:23.550Z,98466.16
2023-06-05T09:58:53.638Z,98467.59
2023-06-05T10:01:25.708Z,98467.13
2023-06-05T10:04:11.822Z,98473.59
2023-06-05T10:06:41.425Z,98474.13
2023-06-05T10:09:10.833Z,98473.25
2023-06-05T10:11:40.329Z,98459.34
2023-06-05T10:14:09.919Z,98464.66
2023-06-05T10:16:39.010Z,98464.97
2023-06-05T10:19:07.532Z,98466.56
2023-06-05T10:21:35.368Z,98469.75
2023-06-05T10:24:23.614Z,98465.69
2023-06-05T10:27:11.099Z,98454.28
2023-06-05T10:30:34.955Z,98451.59
2023-06-05T10:33:41.859Z,98453.94
2023-06-05T10:37:03.606Z,98455.72
2023-06-05T10:39:32.702Z,98467.78
2023-06-05T10:42:00.459Z,98461.13
2023-06-05T10:44:46.245Z,98466.88
2023-06-05T10:47:33.121Z,98456.53
2023-06-05T10:50:22.648Z,98452.09
2023-06-05T10:52:51.576Z,98450.72
2023-06-05T10:55:19.707Z,98453.03
2023-06-05T10:58:15.483Z,98448.47
2023-06-05T11:01:21.795Z,98441.88
2023-06-05T11:04:01.677Z,98438.34
2023-06-05T11:06:31.603Z,98438.97
2023-06-05T11:09:16.211Z,98437.09
2023-06-05T11:12:03.125Z,98428.75
2023-06-05T11:14:49.212Z,98432.69
2023-06-05T11:17:41.820Z,98429.59
2023-06-05T11:20:33.581Z,98435.75
2023-06-05T11:23:00.834Z,98431.84
2023-06-05T11:25:32.078Z,98432.03
2023-06-05T11:28:08.360Z,98433.06
2023-06-05T11:30:48.893Z,98428.38
2023-06-05T11:33:22.976Z,98423.19
2023-06-05T11:35:53.697Z,98416.38
2023-06-05T11:38:25.176Z,98408.19
2023-06-05T11:40:54.958Z,98410.00
2023-06-05T11:43:23.105Z,98412.22
2023-06-05T11:45:58.834Z,98408.00
2023-06-05T11:48:27.646Z,98405.97
2023-06-05T11:51:07.056Z,98406.75
2023-06-05T11:53:35.271Z,98404.56
2023-06-05T11:56:13.218Z,98404.56
2023-06-05T11:58:42.191Z,98409.25
2023-06-05T12:01:23.170Z,98398.56
2023-06-05T12:04:09.406Z,98397.44
2023-06-05T12:06:49.125Z,98406.28
2023-06-05T12:09:17.007Z,98398.91
2023-06-05T12:11:49.490Z,98396.50
2023-06-05T12:14:33.482Z,98390.47
2023-06-05T12:17:09.590Z,98399.63
2023-06-05T12:19:37.315Z,98388.88
2023-06-05T12:22:08.684Z,98389.75
2023-06-05T12:24:37.023Z,98381.63
2023-06-05T12:27:07.594Z,98377.56
2023-06-05T12:29:42.203Z,98376.00
2023-06-05T12:32:27.559Z,98380.84
2023-06-05T12:35:01.617Z,98378.69
2023-06-05T12:37:40.558Z,98367.19
2023-06-05T12:40:12.568Z,98366.69
2023-06-05T12:42:44.513Z,98357.53
2023-06-05T12:45:13.683Z,98354.84
2023-06-05T12:47:43.812Z,98353.34
2023-06-05T12:50:13.506Z,98353.78
2023-06-05T12:52:42.353Z,98345.84
2023-06-05T12:55:11.743Z,98344.66
2023-06-05T12:57:40.049Z,98348.63
2023-06-05T13:00:12.686Z,98336.47
2023-06-05T13:02:49.556Z,98341.94
2023-06-05T13:05:17.480Z,98337.81
2023-06-05T13:07:46.261Z,98346.66
2023-06-05T13:10:14.005Z,98345.72
2023-06-05T13:12:41.716Z,98346.56
2023-06-05T13:15:10.475Z,98331.78
2023-06-05T13:17:39.482Z,98328.38
2023-06-05T13:20:09.920Z,98326.22
2023-06-05T13:22:42.227Z,98321.53
2023-06-05T13:25:10.915Z,98318.19
2023-06-05T13:27:38.996Z,98321.19
2023-06-05T13:30:07.953Z,98313.06
2023-06-05T13:32:40.654Z,98315.72
2023-06-05T13:35:09.762Z,98303.41
2023-06-05T13:37:39.725Z,98310.22
2023-06-05T13:40:11.390Z,98298.75
2023-06-05T13:42:39.180Z,98299.09
2023-06-05T13:45:08.193Z,98303.56
2023-06-05T13:47:36.428Z,98300.88
2023-06-05T13:50:06.037Z,98302.97
2023-06-05T13:52:33.532Z,98302.19
2023-06-05T13:55:01.044Z,98298.13
2023-06-05T13:57:29.347Z,98293.50
2023-06-05T13:59:57.161Z,98289.22
2023-06-05T14:02:24.770Z,98289.84
2023-06-05T14:04:52.517Z,98280.88
2023-06-05T14:07:20.045Z,98285.59
2023-06-05T14:09:49.111Z,98288.03
2023-06-05T14:12:18.878Z,98285.63
2023-06-05T14:14:46.342Z,98279.34
2023-06-05T14:17:14.221Z,98285.09
2023-06-05T14:19:41.835Z,98269.94
2023-06-05T14:22:11.280Z,98269.50
2023-06-05T14:24:38.913Z,98262.34
2023-06-05T14:27:06.917Z,98262.41
2023-06-05T14:29:36.741Z,98265.97
2023-06-05T14:32:04.611Z,98261.00
2023-06-05T14:34:32.181Z,98253.84
2023-06-05T14:36:59.685Z,98251.34
2023-06-05T14:39:27.210Z,98249.47
2023-06-05T14:41:54.781Z,98250.31
2023-06-05T14:44:23.590Z,98253.34
2023-06-05T14:46:56.711Z,98251.88
2023-06-05T14:49:26.182Z,98249.63
2023-06-05T14:51:53.871Z,98241.41
2023-06-05T14:54:21.465Z,98246.66
2023-06-05T14:56:48.954Z,98244.19
2023-06-05T14:59:27.040Z,98236.31
2023-06-05T15:01:55.903Z,98235.44
2023-06-05T15:04:23.808Z,98237.13
2023-06-05T15:06:52.798Z,98231.72
2023-06-05T15:09:23.925Z,98232.72
2023-06-05T15:11:52.154Z,98227.38
2023-06-05T15:14:19.946Z,98232.66
2023-06-05T15:16:47.543Z,98221.66
2023-06-05T15:19:16.171Z,98227.22
2023-06-05T15:21:43.945Z,98215.88
2023-06-05T15:24:11.564Z,98213.19
2023-06-05T15:26:39.056Z,98208.97
2023-06-05T15:29:06.595Z,98213.09
2023-06-05T15:31:34.156Z,98209.41
2023-06-05T15:34:02.322Z,98211.31
2023-06-05T15:36:30.184Z,98213.63
2023-06-05T15:38:58.616Z,98208.56
2023-06-05T15:41:27.091Z,98210.19
2023-06-05T15:43:54.607Z,98218.63
2023-06-05T15:46:23.486Z,98211.50
2023-06-05T15:48:51.447Z,98206.56
2023-06-05T15:51:19.027Z,98208.28
2023-06-05T15:53:57.630Z,98196.34
2023-06-05T15:56:28.419Z,98203.28
2023-06-05T15:58:56.157Z,98195.06
2023-06-05T16:01:24.833Z,98189.78
2023-06-05T16:03:52.733Z,98188.88
2023-06-05T16:06:21.478Z,98188.75
2023-06-05T16:08:49.026Z,98200.22
2023-06-05T16:11:16.549Z,98189.41
2023-06-05T16:13:45.909Z,98183.31
2023-06-05T16:16:13.663Z,98181.75
2023-06-05T16:18:41.202Z,98174.63
2023-06-05T16:21:08.872Z,98180.53
2023-06-05T16:23:36.660Z,98179.34
2023-06-05T16:26:04.174Z,98175.56
2023-06-05T16:28:31.642Z,98176.28
2023-06-05T16:30:59.093Z,98172.81
2023-06-05T16:33:28.068Z,98170.41
2023-06-05T16:35:55.761Z,98177.88
2023-06-05T16:38:23.295Z,98177.56
2023-06-05T16:40:50.787Z,98172.75
2023-06-05T16:43:18.331Z,98174.59
2023-06-05T16:45:47.672Z,98175.28
2023-06-05T16:48:15.621Z,98168.56
2023-06-05T16:50:48.566Z,98176.44
2023-06-05T16:53:17.859Z,98183.56
2023-06-05T16:55:46.010Z,98181.94
2023-06-05T16:58:13.512Z,98170.81
2023-06-05T17:00:41.288Z,98179.88
2023-06-05T17:03:09.098Z,98185.47
2023-06-05T17:05:37.251Z,98184.53
2023-06-05T17:08:05.359Z,98189.59
2023-06-05T17:10:33.935Z,98182.22
2023-06-05T17:13:02.740Z,98190.16
2023-06-05T17:15:30.200Z,98184.56
2023-06-05T17:17:57.681Z,98182.63
2023-06-05T17:20:25.228Z,98179.88
2023-06-05T17:22:53.666Z,98178.63
2023-06-05T17:25:21.535Z,98186.81
2023-06-05T17:27:49.893Z,98179.38
2023-06-05T17:30:17.475Z,98181.22
2023-06-05T17:32:45.033Z,98179.41
2023-06-05T17:35:12.599Z,98176.50
2023-06-05T17:37:40.783Z,98169.72
2023-06-05T17:40:09.377Z,98172.63
2023-06-05T17:42:37.111Z,98172.03
2023-06-05T17:45:06.173Z,98175.41
2023-06-05T17:47:33.839Z,98176.38
2023-06-05T17:50:01.609Z,98188.91
2023-06-05T17:52:29.323Z,98186.66
2023-06-05T17:54:56.873Z,98196.50
2023-06-05T17:57:27.489Z,98185.38
2023-06-05T17:59:55.153Z,98191.94
2023-06-05T18:02:22.914Z,98189.25
2023-06-05T18:04:50.728Z,98198.47
2023-06-05T18:07:18.424Z,98199.09
2023-06-05T18:09:46.009Z,98206.47
2023-06-05T18:12:13.648Z,98204.59
2023-06-05T18:14:41.906Z,98198.22
2023-06-05T18:17:09.422Z,98199.03
2023-06-05T18:19:36.958Z,98198.91
2023-06-05T18:22:05.155Z,98210.53
2023-06-05T18:24:33.085Z,98198.88
2023-06-05T18:27:00.688Z,98203.91
2023-06-05T18:29:31.043Z,98206.16
2023-06-05T18:31:58.594Z,98204.09
2023-06-05T18:34:26.621Z,98203.06
2023-06-05T18:36:54.171Z,98211.44
2023-06-05T18:39:22.568Z,98209.13
2023-06-05T18:41:51.552Z,98213.00
2023-06-05T18:44:19.034Z,98208.00
2023-06-05T18:46:46.870Z,98210.59
2023-06-05T18:49:14.718Z,98213.63
2023-06-05T18:51:42.270Z,98210.78
2023-06-05T18:54:09.809Z,98213.94
2023-06-05T18:56:37.391Z,98216.88
2023-06-05T18:59:04.914Z,98215.44
2023-06-05T19:01:32.430Z,98213.75
2023-06-05T19:03:59.988Z,98217.66
2023-06-05T19:06:27.537Z,98222.25
2023-06-05T19:08:55.069Z,98216.88
2023-06-05T19:11:22.869Z,98217.97
2023-06-05T19:13:51.751Z,98218.28
2023-06-05T19:16:19.542Z,98214.69
2023-06-05T19:18:47.115Z,98222.84
2023-06-05T19:21:14.658Z,98221.25
2023-06-05T19:23:42.412Z,98218.47
2023-06-05T19:26:10.135Z,98215.81
2023-06-05T19:28:37.588Z,98226.75
2023-06-05T19:31:05.232Z,98227.69
2023-06-05T19:33:34.198Z,98227.53
2023-06-05T19:36:01.788Z,98224.56
2023-06-05T19:38:29.274Z,98230.38
2023-06-05T19:40:57.830Z,98219.84
2023-06-05T19:43:25.514Z,98235.69
2023-06-05T19:45:53.059Z,98228.78
2023-06-05T19:48:22.107Z,98241.91
2023-06-05T19:50:49.759Z,98247.25
2023-06-05T19:53:17.479Z,98247.59
2023-06-05T19:55:45.089Z,98248.53
2023-06-05T19:58:12.697Z,98254.03
2023-06-05T20:00:40.346Z,98246.03
2023-06-05T20:03:08.481Z,98255.78
2023-06-05T20:05:35.968Z,98248.06
2023-06-05T20:08:03.683Z,98246.00
2023-06-05T20:10:31.526Z,98259.16
2023-06-05T20:12:59.049Z,98253.25
2023-06-05T20:15:26.644Z,98254.47
2023-06-05T20:17:54.294Z,98262.50
2023-06-05T20:20:21.969Z,98268.41
2023-06-05T20:22:49.544Z,98268.59
2023-06-05T20:25:20.215Z,98260.09
2023-06-05T20:27:48.845Z,98258.94
2023-06-05T20:30:18.052Z,98260.75
2023-06-05T20:32:45.686Z,98267.47
2023-06-05T20:35:15.399Z,98256.47
2023-06-05T20:37:42.935Z,98263.53
2023-06-05T20:40:11.355Z,98261.19
2023-06-05T20:42:39.321Z,98252.91
2023-06-05T20:45:08.864Z,98259.28
2023-06-05T20:47:40.487Z,98261.03
2023-06-05T20:50:10.049Z,98266.31
2023-06-05T20:52:37.856Z,98260.56
2023-06-05T20:55:07.638Z,98264.25
2023-06-05T20:57:35.302Z,98258.97
2023-06-05T21:00:04.558Z,98263.81
2023-06-05T21:02:32.403Z,98262.63
2023-06-05T21:05:00.845Z,98280.00
2023-06-05T21:07:28.919Z,98269.66
2023-06-05T21:09:56.426Z,98275.53
2023-06-05T21:12:24.222Z,98278.16
2023-06-05T21:14:53.905Z,98270.66
2023-06-05T21:17:21.557Z,98274.22
2023-06-05T21:19:49.023Z,98279.78
2023-06-05T21:22:16.604Z,98279.88
2023-06-05T21:24:44.127Z,98271.59
2023-06-05T21:27:12.277Z,98274.63
2023-06-05T21:29:40.749Z,98267.75
2023-06-05T21:32:09.586Z,98280.72
2023-06-05T21:34:44.409Z,98283.41
2023-06-05T21:37:19.775Z,98277.97
2023-06-05T21:39:48.073Z,98282.88
2023-06-05T21:42:16.989Z,98276.16
2023-06-05T21:44:48.700Z,98285.44
2023-06-05T21:47:19.783Z,98285.44
2023-06-05T21:49:47.479Z,98288.91
2023-06-05T21:52:18.123Z,98290.66
2023-06-05T21:54:45.997Z,98290.38
2023-06-05T21:57:13.942Z,98286.66
2023-06-05T21:59:41.841Z,98289.47
2023-06-05T22:02:10.446Z,98293.50
2023-06-05T22:04:39.010Z,98292.63
2023-06-05T22:07:11.642Z,98289.91
2023-06-05T22:09:40.681Z,98304.09
2023-06-05T22:12:13.422Z,98298.34
2023-06-05T22:14:44.813Z,98304.09
2023-06-05T22:17:14.262Z,98306.69
2023-06-05T22:19:43.123Z,98306.34
2023-06-05T22:22:12.121Z,98294.09
2023-06-05T22:24:39.939Z,98313.44
2023-06-05T22:27:08.013Z,98313.66
2023-06-05T22:29:35.560Z,98308.81
2023-06-05T22:32:03.261Z,98311.94
2023-06-05T22:34:33.577Z,98308.63
2023-06-05T22:37:03.780Z,98311.63
2023-06-05T22:39:31.447Z,98317.91
2023-06-05T22:41:58.954Z,98322.63
2023-06-05T22:44:26.999Z,98329.13
2023-06-05T22:46:54.585Z,98319.75
2023-06-05T22:49:22.151Z,98314.88
2023-06-05T22:51:50.456Z,98317.69
2023-06-05T22:54:18.389Z,98324.09
2023-06-05T22:56:45.915Z,98315.25
2023-06-05T22:59:13.501Z,98318.28
2023-06-05T23:01:41.120Z,98324.63
2023-06-05T23:04:08.699Z,98324.31
2023-06-05T23:06:36.264Z,98333.28
2023-06-05T23:09:03.781Z,98340.41
2023-06-05T23:11:31.298Z,98342.44
2023-06-05T23:13:58.809Z,98332.72
2023-06-05T23:16:26.573Z,98328.66
2023-06-05T23:18:54.120Z,98332.28
2023-06-05T23:21:21.932Z,98332.81
2023-06-05T23:23:49.844Z,98333.25
2023-06-05T23:26:18.383Z,98328.19
2023-06-05T23:28:46.853Z,98329.78
2023-06-05T23:31:14.552Z,98325.09
2023-06-05T23:33:42.100Z,98331.84
2023-06-05T23:36:12.048Z,98330.09
2023-06-05T23:38:39.736Z,98336.41
2023-06-05T23:41:07.297Z,98319.59
2023-06-05T23:43:35.588Z,98325.56
2023-06-05T23:46:03.587Z,98335.19
2023-06-05T23:48:31.170Z,98337.47
2023-06-05T23:50:58.820Z,98325.31
2023-06-05T23:53:26.359Z,98330.31
2023-06-05T23:55:53.926Z,98329.06
2023-06-05T23:58:21.657Z,98320.88
